Weather reports worldwide

Advertisment
South Newington, United Kingdom (99166): temperature & dewpoint: 23.09.2020 02:00:00 - 29.09.2020 02:00:00 (BST)South Newington, United Kingdom (99166): temperature -20cm & temperature -100cm: 23.09.2020 02:00:00 - 29.09.2020 02:00:00 (BST)South Newington, United Kingdom (99166): precipitation: 23.09.2020 02:00:00 - 29.09.2020 02:00:00 (BST)
Date & Time tt [°C] td [°C] tt -20cm [°C] tt -100cm [°C] rr [mm]
29.09.2020 02:00:00 - - - - -
29.09.2020 01:00:00 13,9 13,6 - - 0,4
29.09.2020 00:00:00 13,9 13,5 - - 1,2
28.09.2020 23:00:00 13,9 13,5 - - 0,2
28.09.2020 22:00:00 13,7 13,1 - - 0,0
28.09.2020 21:00:00 13,7 12,8 - - 0,0
28.09.2020 20:00:00 14,2 13,1 - - 0,0
28.09.2020 19:00:00 14,9 13,0 - - 0,0
28.09.2020 18:00:00 16,4 13,6 - - 0,0
28.09.2020 17:00:00 16,8 12,7 - - -
28.09.2020 16:00:00 17,0 12,3 - - 0,0
28.09.2020 15:00:00 16,0 11,8 - - 0,0
28.09.2020 14:00:00 15,1 11,0 - - 0,0
28.09.2020 13:00:00 14,6 10,2 - - 0,0
28.09.2020 12:00:00 14,0 9,2 - - -
28.09.2020 11:00:00 12,3 7,3 - - 0,0
28.09.2020 10:00:00 10,2 8,9 13,0 15,5 0,0
28.09.2020 09:00:00 5,4 5,4 - - 0,0
28.09.2020 08:00:00 2,0 1,8 - - 0,0
28.09.2020 07:00:00 1,6 1,2 - - 0,0
28.09.2020 06:00:00 1,9 1,3 - - 0,0
28.09.2020 05:00:00 3,8 3,4 - - 0,0
28.09.2020 04:00:00 3,1 2,6 - - -
28.09.2020 03:00:00 3,7 3,5 - - 0,0
28.09.2020 02:00:00 3,6 3,4 - - 0,0
28.09.2020 01:00:00 3,2 2,9 - - 0,0
28.09.2020 00:00:00 3,5 3,2 - - 0,0
27.09.2020 23:00:00 3,4 2,9 - - 0,0
27.09.2020 22:00:00 4,0 3,1 - - 0,0
27.09.2020 21:00:00 5,4 4,2 - - 0,0
27.09.2020 20:00:00 7,3 5,0 - - 0,0
27.09.2020 19:00:00 9,9 6,0 - - 0,0
27.09.2020 18:00:00 12,3 5,5 - - -
27.09.2020 17:00:00 13,4 5,3 - - 0,0
27.09.2020 16:00:00 14,6 5,8 - - 0,0
27.09.2020 15:00:00 14,3 6,4 - - 0,0
27.09.2020 14:00:00 13,6 6,1 - - 0,0
27.09.2020 13:00:00 13,0 5,7 - - 0,0
27.09.2020 12:00:00 12,3 5,9 - - 0,0
27.09.2020 11:00:00 10,8 4,9 - - 0,0
27.09.2020 10:00:00 10,1 5,5 - - -
27.09.2020 09:00:00 8,2 4,4 - - 0,0
27.09.2020 08:00:00 7,9 4,1 - - 0,0
27.09.2020 07:00:00 7,8 3,8 - - 0,0
27.09.2020 06:00:00 8,3 3,8 - - -
27.09.2020 05:00:00 9,2 4,1 - - 0,0
27.09.2020 04:00:00 9,5 4,0 - - 0,0
27.09.2020 03:00:00 9,5 4,3 - - 0,0
27.09.2020 02:00:00 9,6 4,0 - - 0,0
27.09.2020 01:00:00 9,9 4,0 - - 0,0
27.09.2020 00:00:00 10,2 4,1 - - 0,0
26.09.2020 23:00:00 10,3 4,4 - - 0,0
26.09.2020 22:00:00 10,3 4,7 - - -
26.09.2020 21:00:00 10,3 5,3 - - 0,0
26.09.2020 20:00:00 10,5 5,4 - - 0,0
26.09.2020 19:00:00 10,6 5,1 - - 0,0
26.09.2020 18:00:00 11,1 5,2 - - 0,0
26.09.2020 17:00:00 11,1 4,8 - - 0,0
26.09.2020 16:00:00 12,1 5,3 - - 0,0
26.09.2020 15:00:00 12,9 4,8 - - 0,0
26.09.2020 14:00:00 11,8 3,4 - - 0,0
26.09.2020 13:00:00 12,3 4,2 - - 0,0
26.09.2020 12:00:00 11,4 4,5 - - 0,0
26.09.2020 11:00:00 10,4 2,8 - - 0,0
26.09.2020 10:00:00 8,9 2,9 - - 0,0
26.09.2020 09:00:00 5,9 2,2 - - 0,0
26.09.2020 08:00:00 4,6 2,3 - - 0,0
26.09.2020 07:00:00 3,9 2,3 - - 0,0
26.09.2020 06:00:00 4,2 2,7 - - 0,0
26.09.2020 05:00:00 4,8 3,2 - - 0,0
26.09.2020 04:00:00 5,4 3,9 - - 0,0
26.09.2020 03:00:00 6,0 4,5 - - 0,0
26.09.2020 02:00:00 6,2 5,0 - - 0,0
26.09.2020 01:00:00 6,5 5,0 - - 0,2
26.09.2020 00:00:00 6,7 5,0 - - 0,0
25.09.2020 23:00:00 7,7 5,4 - - 0,0
25.09.2020 22:00:00 9,1 5,5 - - 0,0
25.09.2020 21:00:00 9,1 4,6 - - 0,0
25.09.2020 20:00:00 9,0 3,5 - - 0,0
25.09.2020 19:00:00 10,2 3,6 - - 0,0
25.09.2020 18:00:00 11,5 4,1 - - -
25.09.2020 17:00:00 12,7 2,7 - - 0,0
25.09.2020 16:00:00 13,4 3,1 - - 0,0
25.09.2020 15:00:00 13,2 2,6 - - 0,0
25.09.2020 14:00:00 13,2 3,3 - - 0,0
25.09.2020 13:00:00 13,4 4,8 - - 0,0
25.09.2020 12:00:00 12,8 6,1 - - 0,0
25.09.2020 11:00:00 11,4 5,4 - - 0,0
25.09.2020 10:00:00 10,0 5,9 14,2 15,7 0,0
25.09.2020 09:00:00 7,1 4,7 - - 0,0
25.09.2020 08:00:00 6,7 5,0 - - -
25.09.2020 07:00:00 6,8 6,0 - - 0,0
25.09.2020 06:00:00 6,5 6,2 - - 0,0
25.09.2020 05:00:00 6,0 5,8 - - 0,0
25.09.2020 04:00:00 5,7 5,6 - - 0,0
25.09.2020 03:00:00 5,0 4,8 - - 0,2
25.09.2020 02:00:00 5,1 4,9 - - 0,0
25.09.2020 01:00:00 4,8 4,6 - - 0,0
25.09.2020 00:00:00 4,6 4,2 - - 0,0
24.09.2020 23:00:00 5,7 4,7 - - 0,2
24.09.2020 22:00:00 7,8 5,7 - - -
24.09.2020 21:00:00 7,3 6,9 - - 0,0
24.09.2020 20:00:00 7,8 7,0 - - 0,0
24.09.2020 19:00:00 9,2 7,9 - - 0,0
24.09.2020 18:00:00 10,6 7,7 - - 0,2
24.09.2020 17:00:00 11,8 7,4 - - 0,0
24.09.2020 16:00:00 11,1 8,2 - - 5,8
24.09.2020 15:00:00 11,9 6,6 - - 1,0
24.09.2020 14:00:00 13,3 5,6 - - 0,0
24.09.2020 13:00:00 13,0 5,8 - - 0,0
24.09.2020 12:00:00 12,7 10,1 - - 5,4
24.09.2020 11:00:00 13,0 9,3 - - 0,0
24.09.2020 10:00:00 10,9 8,1 15,7 15,7 0,0
24.09.2020 09:00:00 9,7 8,8 - - 0,2
24.09.2020 08:00:00 9,1 8,6 - - 0,2
24.09.2020 07:00:00 8,4 7,8 - - 0,0
24.09.2020 06:00:00 7,9 7,5 - - 0,4
24.09.2020 05:00:00 7,3 6,9 - - 0,0
24.09.2020 04:00:00 7,4 7,2 - - 0,0
24.09.2020 03:00:00 6,6 6,5 - - -
24.09.2020 02:00:00 5,5 5,2 - - 0,0
24.09.2020 01:00:00 6,3 5,9 - - 0,0
24.09.2020 00:00:00 6,9 6,5 - - 0,0
23.09.2020 23:00:00 8,2 7,7 - - 0,0
23.09.2020 22:00:00 9,1 8,5 - - 3,8
23.09.2020 21:00:00 10,1 9,1 - - 0,4
23.09.2020 20:00:00 11,3 10,8 - - 0,4
23.09.2020 19:00:00 12,0 10,9 - - 0,8
23.09.2020 18:00:00 13,5 12,2 - - 0,2
23.09.2020 17:00:00 14,0 12,5 - - 0,0
23.09.2020 16:00:00 13,9 13,0 - - 0,2
23.09.2020 15:00:00 13,2 12,3 - - 2,4
23.09.2020 14:00:00 15,0 11,3 - - 0,0
23.09.2020 13:00:00 16,0 13,4 - - 0,0
23.09.2020 12:00:00 15,3 13,4 - - 0,2
23.09.2020 11:00:00 15,1 12,9 - - 0,0
23.09.2020 10:00:00 14,9 12,8 17,0 15,7 0,0
23.09.2020 09:00:00 14,4 12,9 - - 0,0
23.09.2020 08:00:00 14,3 13,5 - - 0,0
23.09.2020 07:00:00 14,4 13,8 - - 0,0
23.09.2020 06:00:00 14,3 13,8 - - 0,0
23.09.2020 05:00:00 14,4 13,8 - - 0,0
23.09.2020 04:00:00 14,5 13,8 - - 0,0
23.09.2020 03:00:00 14,6 13,8 - - 0,4
23.09.2020 02:00:00 15,1 13,9 - - 0,0

tt = temperature
td = dewpoint
tt -20cm = temperature -20cm
tt -100cm = temperature -100cm
rr = precipitation

Next stations